createdAt,value
2018-01-12T00:02:15.882Z,19.27
2018-01-12T00:04:43.605Z,19.58
2018-01-12T00:07:11.233Z,20.27
2018-01-12T00:09:38.865Z,20.92
2018-01-12T00:12:06.541Z,19.77
2018-01-12T00:14:35.020Z,20.35
2018-01-12T00:17:02.831Z,22.20
2018-01-12T00:19:30.612Z,19.12
2018-01-12T00:21:58.281Z,20.95
2018-01-12T00:24:27.042Z,20.88
2018-01-12T00:26:54.861Z,20.20
2018-01-12T00:29:22.542Z,21.25
2018-01-12T00:31:50.237Z,20.77
2018-01-12T00:34:17.969Z,20.30
2018-01-12T00:36:45.766Z,19.62
2018-01-12T00:39:14.308Z,19.73
2018-01-12T00:41:42.149Z,20.50
2018-01-12T00:44:09.897Z,21.80
2018-01-12T00:46:37.656Z,18.98
2018-01-12T00:49:05.394Z,21.45
2018-01-12T00:51:33.159Z,19.30
2018-01-12T00:54:00.926Z,19.75
2018-01-12T00:56:28.649Z,20.48
2018-01-12T00:58:56.346Z,21.10
2018-01-12T01:01:24.873Z,21.23
2018-01-12T01:03:52.518Z,19.95
2018-01-12T01:06:20.226Z,19.90
2018-01-12T01:08:47.948Z,20.10
2018-01-12T01:11:16.462Z,20.10
2018-01-12T01:13:44.244Z,21.70
2018-01-12T01:16:11.856Z,20.05
2018-01-12T01:18:39.545Z,20.60
2018-01-12T01:21:07.280Z,20.48
2018-01-12T01:23:34.971Z,19.05
2018-01-12T01:26:02.675Z,21.52
2018-01-12T01:28:31.035Z,20.15
2018-01-12T01:30:58.687Z,20.67
2018-01-12T01:33:26.374Z,20.20
2018-01-12T01:35:54.067Z,23.30
2018-01-12T01:38:21.800Z,20.83
2018-01-12T01:40:49.607Z,21.65
2018-01-12T01:43:17.213Z,22.55
2018-01-12T01:45:44.912Z,19.67
2018-01-12T01:48:12.534Z,21.55
2018-01-12T01:50:40.263Z,23.42
2018-01-12T01:53:07.854Z,23.60
2018-01-12T01:55:36.475Z,21.50
2018-01-12T01:58:04.336Z,19.48
2018-01-12T02:00:31.954Z,21.10
2018-01-12T02:02:59.773Z,20.25
2018-01-12T02:05:27.522Z,22.15
2018-01-12T02:07:55.327Z,20.62
2018-01-12T02:10:23.061Z,22.30
2018-01-12T02:12:51.434Z,21.83
2018-01-12T02:15:19.993Z,20.35
2018-01-12T02:17:47.671Z,21.00
2018-01-12T02:20:15.400Z,21.52
2018-01-12T02:22:43.092Z,20.33
2018-01-12T02:25:10.875Z,20.73
2018-01-12T02:27:38.499Z,18.73
2018-01-12T02:30:06.143Z,20.50
2018-01-12T02:32:34.662Z,20.30
2018-01-12T02:35:02.337Z,21.40
2018-01-12T02:37:30.066Z,20.12
2018-01-12T02:39:57.769Z,21.60
2018-01-12T02:42:26.294Z,20.75
2018-01-12T02:44:54.082Z,21.58
2018-01-12T02:47:21.923Z,23.45
2018-01-12T02:49:49.667Z,21.62
2018-01-12T02:52:18.153Z,21.23
2018-01-12T02:54:46.001Z,22.27
2018-01-12T02:57:13.855Z,20.73
2018-01-12T02:59:41.630Z,21.23
2018-01-12T03:02:09.668Z,22.85
2018-01-12T03:04:37.536Z,20.58
2018-01-12T03:07:05.263Z,23.80
2018-01-12T03:09:32.993Z,22.02
2018-01-12T03:12:00.647Z,21.67
2018-01-12T03:14:28.302Z,21.55
2018-01-12T03:16:56.897Z,21.90
2018-01-12T03:19:25.268Z,21.15
2018-01-12T03:21:52.922Z,21.70
2018-01-12T03:24:20.600Z,24.42
2018-01-12T03:26:48.515Z,21.77
2018-01-12T03:29:16.450Z,22.50
2018-01-12T03:31:44.237Z,22.75
2018-01-12T03:34:12.337Z,19.95
2018-01-12T03:36:40.066Z,21.92
2018-01-12T03:39:08.498Z,22.98
2018-01-12T03:41:36.266Z,20.00
2018-01-12T03:44:03.931Z,21.17
2018-01-12T03:46:31.591Z,22.67
2018-01-12T03:48:59.466Z,23.60
2018-01-12T03:51:27.107Z,20.90
2018-01-12T03:53:54.807Z,22.40
2018-01-12T03:56:22.516Z,21.60
2018-01-12T03:58:50.230Z,21.42
2018-01-12T04:01:18.965Z,20.90
2018-01-12T04:03:46.617Z,23.38
2018-01-12T04:06:15.118Z,23.55
2018-01-12T04:08:43.099Z,21.05
2018-01-12T04:11:10.822Z,22.02
2018-01-12T04:13:38.647Z,21.60
2018-01-12T04:16:08.121Z,20.88
2018-01-12T04:18:35.891Z,23.75
2018-01-12T04:21:03.877Z,21.02
2018-01-12T04:23:31.572Z,22.70
2018-01-12T04:25:59.234Z,20.23
2018-01-12T04:28:27.088Z,20.95
2018-01-12T04:30:54.891Z,23.02
2018-01-12T04:33:22.805Z,24.08
2018-01-12T04:35:50.488Z,22.15
2018-01-12T04:38:18.264Z,23.12
2018-01-12T04:40:45.952Z,24.92
2018-01-12T04:43:13.633Z,21.20
2018-01-12T04:45:41.261Z,21.30
2018-01-12T04:48:09.745Z,23.12
2018-01-12T04:50:38.248Z,21.85
2018-01-12T04:53:05.946Z,24.48
2018-01-12T04:55:34.388Z,21.75
2018-01-12T04:58:02.918Z,23.12
2018-01-12T05:00:30.630Z,21.87
2018-01-12T05:02:59.204Z,22.80
2018-01-12T05:05:26.923Z,22.30
2018-01-12T05:07:55.423Z,23.45
2018-01-12T05:10:23.192Z,21.58
2018-01-12T05:12:51.046Z,20.90
2018-01-12T05:15:18.791Z,21.50
2018-01-12T05:17:46.436Z,19.90
2018-01-12T05:20:14.200Z,20.60
2018-01-12T05:22:41.869Z,21.33
2018-01-12T05:25:09.589Z,21.42
2018-01-12T05:27:37.290Z,21.17
2018-01-12T05:30:04.934Z,19.98
2018-01-12T05:32:32.735Z,20.90
2018-01-12T05:35:00.382Z,20.45
2018-01-12T05:37:28.046Z,22.73
2018-01-12T05:39:55.761Z,22.25
2018-01-12T05:42:23.551Z,20.88
2018-01-12T05:44:52.076Z,20.40
2018-01-12T05:47:19.799Z,21.62
2018-01-12T05:49:48.279Z,19.80
2018-01-12T05:52:15.963Z,19.48
2018-01-12T05:54:43.649Z,20.92
2018-01-12T05:57:11.393Z,20.90
2018-01-12T05:59:39.323Z,23.15
2018-01-12T06:02:18.856Z,20.12
2018-01-12T06:04:59.127Z,21.50
2018-01-12T06:07:26.781Z,21.65
2018-01-12T06:09:54.417Z,20.10
2018-01-12T06:12:22.205Z,20.17
2018-01-12T06:14:49.931Z,19.42
2018-01-12T06:17:17.597Z,21.62
2018-01-12T06:19:45.330Z,19.77
2018-01-12T06:22:13.069Z,20.67
2018-01-12T06:24:40.855Z,19.80
2018-01-12T06:27:08.513Z,21.25
2018-01-12T06:29:36.967Z,19.45
2018-01-12T06:32:05.004Z,22.73
2018-01-12T06:34:32.595Z,21.98
2018-01-12T06:37:00.242Z,20.65
2018-01-12T06:39:27.874Z,19.05
2018-01-12T06:41:55.493Z,21.87
2018-01-12T06:44:23.201Z,21.65
2018-01-12T06:46:50.860Z,22.60
2018-01-12T06:49:18.526Z,19.02
2018-01-12T06:51:46.141Z,18.35
2018-01-12T06:54:13.839Z,20.15
2018-01-12T06:56:42.355Z,21.87
2018-01-12T06:59:11.050Z,19.52
2018-01-12T07:01:39.115Z,19.77
2018-01-12T07:04:08.881Z,20.23
2018-01-12T07:06:37.372Z,18.73
2018-01-12T07:09:06.281Z,22.17
2018-01-12T07:11:35.149Z,22.60
2018-01-12T07:14:03.134Z,21.48
2018-01-12T07:16:30.750Z,20.40
2018-01-12T07:18:58.589Z,21.67
2018-01-12T07:21:38.009Z,18.55
2018-01-12T07:24:05.909Z,24.12
2018-01-12T07:26:33.618Z,22.90
2018-01-12T07:29:01.337Z,21.50
2018-01-12T07:31:29.936Z,20.05
2018-01-12T07:33:57.625Z,20.42
2018-01-12T07:36:25.304Z,21.50
2018-01-12T07:38:52.936Z,20.08
2018-01-12T07:41:20.558Z,21.50
2018-01-12T07:43:48.231Z,22.30
2018-01-12T07:46:15.890Z,22.25
2018-01-12T07:48:43.589Z,20.30
2018-01-12T07:51:11.987Z,18.87
2018-01-12T07:53:40.365Z,19.17
2018-01-12T07:56:08.750Z,18.62
2018-01-12T07:58:37.129Z,19.50
2018-01-12T08:01:10.632Z,18.08
2018-01-12T08:03:39.008Z,19.45
2018-01-12T08:06:07.861Z,21.65
2018-01-12T08:08:35.604Z,19.65
2018-01-12T08:11:03.266Z,20.80
2018-01-12T08:13:30.935Z,20.98
2018-01-12T08:15:58.729Z,20.73
2018-01-12T08:18:27.413Z,19.37
2018-01-12T08:20:55.824Z,19.73
2018-01-12T08:23:23.464Z,21.20
2018-01-12T08:25:53.154Z,19.55
2018-01-12T08:28:21.034Z,19.20
2018-01-12T08:30:49.235Z,20.62
2018-01-12T08:33:17.091Z,19.20
2018-01-12T08:35:45.502Z,18.37
2018-01-12T08:38:13.213Z,20.25
2018-01-12T08:40:41.221Z,20.85
2018-01-12T08:43:08.856Z,20.92
2018-01-12T08:45:37.236Z,20.08
2018-01-12T08:48:05.708Z,23.87
2018-01-12T08:50:33.470Z,19.37
2018-01-12T08:53:01.875Z,20.33
2018-01-12T08:55:29.690Z,23.08
2018-01-12T08:57:57.337Z,17.92
2018-01-12T09:00:25.010Z,20.60
2018-01-12T09:02:52.708Z,18.73
2018-01-12T09:05:21.140Z,19.33
2018-01-12T09:07:48.756Z,21.30
2018-01-12T09:10:17.241Z,21.45
2018-01-12T09:12:45.116Z,21.87
2018-01-12T09:15:29.301Z,20.88
2018-01-12T09:18:00.823Z,21.67
2018-01-12T09:20:35.345Z,20.27
2018-01-12T09:23:26.805Z,21.55
2018-01-12T09:25:54.452Z,21.08
2018-01-12T09:28:22.051Z,21.35
2018-01-12T09:30:49.717Z,21.33
2018-01-12T09:33:17.341Z,21.02
2018-01-12T09:35:45.017Z,20.58
2018-01-12T09:38:20.523Z,20.35
2018-01-12T09:40:48.211Z,19.12
2018-01-12T09:43:15.967Z,18.90
2018-01-12T09:45:44.309Z,21.08
2018-01-12T09:48:38.071Z,20.70
2018-01-12T09:51:09.591Z,20.30
2018-01-12T09:53:37.305Z,19.35
2018-01-12T09:56:05.910Z,17.37
2018-01-12T09:58:33.597Z,18.12
2018-01-12T10:01:03.177Z,20.70
2018-01-12T10:03:31.611Z,20.02
2018-01-12T10:05:59.208Z,19.80
2018-01-12T10:08:26.902Z,19.65
2018-01-12T10:10:54.504Z,18.65
2018-01-12T10:13:22.120Z,19.40
2018-01-12T10:15:49.735Z,20.60
2018-01-12T10:18:35.156Z,18.95
2018-01-12T10:21:08.966Z,19.08
2018-01-12T10:23:37.378Z,19.40
2018-01-12T10:26:06.012Z,18.45
2018-01-12T10:28:34.438Z,18.62
2018-01-12T10:31:02.156Z,19.15
2018-01-12T10:33:42.644Z,21.58
2018-01-12T10:36:10.216Z,18.37
2018-01-12T10:38:37.826Z,18.55
2018-01-12T10:41:17.447Z,18.33
2018-01-12T10:43:45.030Z,19.42
2018-01-12T10:46:36.317Z,20.17
2018-01-12T10:49:08.918Z,18.85
2018-01-12T10:51:37.513Z,18.75
2018-01-12T10:54:05.100Z,19.80
2018-01-12T10:56:33.589Z,18.90
2018-01-12T10:59:02.008Z,20.70
2018-01-12T11:01:29.582Z,18.73
2018-01-12T11:03:57.314Z,19.08
2018-01-12T11:06:24.979Z,18.77
2018-01-12T11:08:52.665Z,20.35
2018-01-12T11:11:20.397Z,19.77
2018-01-12T11:13:48.012Z,18.37
2018-01-12T11:16:15.754Z,19.17
2018-01-12T11:18:43.392Z,19.95
2018-01-12T11:21:10.983Z,19.50
2018-01-12T11:23:38.665Z,19.33
2018-01-12T11:26:06.294Z,20.65
2018-01-12T11:28:33.903Z,20.10
2018-01-12T11:31:01.521Z,18.75
2018-01-12T11:33:29.229Z,17.10
2018-01-12T11:35:57.725Z,16.70
2018-01-12T11:38:25.349Z,17.30
2018-01-12T11:40:53.026Z,18.05
2018-01-12T11:43:20.840Z,16.48
2018-01-12T11:45:49.230Z,19.80
2018-01-12T11:48:16.810Z,18.77
2018-01-12T11:50:44.578Z,19.87
2018-01-12T11:53:12.162Z,18.92
2018-01-12T11:55:40.627Z,18.90
2018-01-12T11:58:08.281Z,20.05
2018-01-12T12:00:35.941Z,20.85
2018-01-12T12:03:03.593Z,19.35
2018-01-12T12:05:31.221Z,17.80
2018-01-12T12:07:58.821Z,18.87
2018-01-12T12:10:26.483Z,19.75
2018-01-12T12:12:54.156Z,17.87
2018-01-12T12:15:21.798Z,19.27
2018-01-12T12:17:49.395Z,19.25
2018-01-12T12:20:17.305Z,17.92
2018-01-12T12:22:44.921Z,19.50
2018-01-12T12:25:12.597Z,18.12
2018-01-12T12:27:40.213Z,17.23
2018-01-12T12:30:07.831Z,18.62
2018-01-12T12:32:36.258Z,16.60
2018-01-12T12:35:03.826Z,18.37
2018-01-12T12:37:31.482Z,19.50
2018-01-12T12:39:59.080Z,17.35
2018-01-12T12:42:26.776Z,19.50
2018-01-12T12:44:54.489Z,17.37
2018-01-12T12:47:22.104Z,18.75
2018-01-12T12:49:49.723Z,18.87
2018-01-12T12:52:17.306Z,22.23
2018-01-12T12:54:45.700Z,18.27
2018-01-12T12:57:13.301Z,19.90
2018-01-12T12:59:40.927Z,20.45
2018-01-12T13:02:08.576Z,17.70
2018-01-12T13:04:36.194Z,20.08
2018-01-12T13:07:03.843Z,20.40
2018-01-12T13:09:31.480Z,18.67
2018-01-12T13:11:59.084Z,20.40
2018-01-12T13:14:26.699Z,18.52
2018-01-12T13:16:54.449Z,22.23
2018-01-12T13:19:23.661Z,18.70
2018-01-12T13:21:51.274Z,17.98
2018-01-12T13:24:18.976Z,22.35
2018-01-12T13:26:47.366Z,19.92
2018-01-12T13:29:15.023Z,20.33
2018-01-12T13:31:42.646Z,21.30
2018-01-12T13:34:10.281Z,21.20
2018-01-12T13:36:37.864Z,19.40
2018-01-12T13:39:06.315Z,22.35
2018-01-12T13:41:33.950Z,20.20
2018-01-12T13:44:01.630Z,20.88
2018-01-12T13:46:29.298Z,20.67
2018-01-12T13:48:56.992Z,20.88
2018-01-12T13:51:24.558Z,20.08
2018-01-12T13:53:52.241Z,20.00
2018-01-12T13:56:19.859Z,18.73
2018-01-12T13:58:47.489Z,18.30
2018-01-12T14:01:15.058Z,20.05
2018-01-12T14:03:42.669Z,20.55
2018-01-12T14:06:10.307Z,18.25
2018-01-12T14:08:38.741Z,19.00
2018-01-12T14:11:06.320Z,19.05
2018-01-12T14:13:33.989Z,17.58
2018-01-12T14:16:02.406Z,17.08
2018-01-12T14:18:31.201Z,20.02
2018-01-12T14:20:58.837Z,19.73
2018-01-12T14:23:26.529Z,16.70
2018-01-12T14:25:54.253Z,19.00
2018-01-12T14:28:22.673Z,16.30
2018-01-12T14:30:50.294Z,17.08
2018-01-12T14:33:17.873Z,16.77
2018-01-12T14:35:54.070Z,17.45
2018-01-12T14:38:21.688Z,17.42
2018-01-12T14:40:50.088Z,18.00
2018-01-12T14:43:17.892Z,19.20
2018-01-12T14:45:45.508Z,15.50
2018-01-12T14:48:13.130Z,17.00
2018-01-12T14:50:40.813Z,18.30
2018-01-12T14:53:08.476Z,17.67
2018-01-12T14:55:36.665Z,17.45
2018-01-12T14:58:04.562Z,17.67
2018-01-12T15:00:32.207Z,15.90
2018-01-12T15:02:59.781Z,17.15
2018-01-12T15:05:27.948Z,18.12
2018-01-12T15:07:55.562Z,18.27
2018-01-12T15:10:23.162Z,16.65
2018-01-12T15:12:50.774Z,16.83
2018-01-12T15:15:19.348Z,18.58
2018-01-12T15:17:47.033Z,16.08
2018-01-12T15:20:15.079Z,18.15
2018-01-12T15:22:42.966Z,17.67
2018-01-12T15:25:10.613Z,17.92
2018-01-12T15:27:39.240Z,16.25
2018-01-12T15:30:07.059Z,16.85
2018-01-12T15:32:35.115Z,16.75
2018-01-12T15:35:04.362Z,16.40
2018-01-12T15:37:32.349Z,18.40
2018-01-12T15:40:00.019Z,15.50
2018-01-12T15:42:27.664Z,17.55
2018-01-12T15:44:55.281Z,17.00
2018-01-12T15:47:22.892Z,17.08
2018-01-12T15:49:50.486Z,16.67
2018-01-12T15:52:18.133Z,16.92
2018-01-12T15:54:45.709Z,16.83
2018-01-12T15:57:13.302Z,15.15
2018-01-12T15:59:40.937Z,18.80
2018-01-12T16:02:08.501Z,15.10
2018-01-12T16:04:36.108Z,17.17
2018-01-12T16:07:03.672Z,16.77
2018-01-12T16:09:31.379Z,15.18
2018-01-12T16:11:58.989Z,15.65
2018-01-12T16:14:26.583Z,15.23
2018-01-12T16:16:54.204Z,16.35
2018-01-12T16:19:21.790Z,17.05
2018-01-12T16:21:49.402Z,16.45
2018-01-12T16:24:17.021Z,15.75
2018-01-12T16:26:44.632Z,14.57
2018-01-12T16:29:12.219Z,16.65
2018-01-12T16:31:42.875Z,17.35
2018-01-12T16:34:10.472Z,15.05
2018-01-12T16:36:38.060Z,15.15
2018-01-12T16:39:06.403Z,16.37
2018-01-12T16:41:34.026Z,15.55
2018-01-12T16:44:01.704Z,16.60
2018-01-12T16:46:29.272Z,16.67
2018-01-12T16:48:56.920Z,17.50
2018-01-12T16:51:24.505Z,16.87
2018-01-12T16:53:52.117Z,17.00
2018-01-12T16:56:19.696Z,20.08
2018-01-12T16:58:47.358Z,18.30
2018-01-12T17:01:14.940Z,17.52
2018-01-12T17:03:42.614Z,15.90
2018-01-12T17:06:10.181Z,16.60
2018-01-12T17:08:37.786Z,18.30
2018-01-12T17:11:05.365Z,18.85
2018-01-12T17:13:33.248Z,18.33
2018-01-12T17:16:03.078Z,17.70
2018-01-12T17:18:32.573Z,17.70
2018-01-12T17:21:02.055Z,18.25
2018-01-12T17:23:31.601Z,20.35
2018-01-12T17:26:01.183Z,20.00
2018-01-12T17:28:30.391Z,18.75
2018-01-12T17:31:00.077Z,19.00
2018-01-12T17:33:29.909Z,18.08
2018-01-12T17:35:59.665Z,18.95
2018-01-12T17:38:30.992Z,19.60
2018-01-12T17:41:00.897Z,19.85
2018-01-12T17:43:33.367Z,17.52
2018-01-12T17:46:02.925Z,18.75
2018-01-12T17:48:31.249Z,18.98
2018-01-12T17:50:58.898Z,18.65
2018-01-12T17:53:27.238Z,18.98
2018-01-12T17:55:55.587Z,17.92
2018-01-12T17:58:23.193Z,17.58
2018-01-12T18:00:50.792Z,17.15
2018-01-12T18:03:18.403Z,20.98
2018-01-12T18:05:46.011Z,17.02
2018-01-12T18:08:13.629Z,16.98
2018-01-12T18:10:41.989Z,18.00
2018-01-12T18:13:09.594Z,16.50
2018-01-12T18:15:37.178Z,16.67
2018-01-12T18:18:04.814Z,18.30
2018-01-12T18:20:32.417Z,18.70
2018-01-12T18:23:00.120Z,16.90
2018-01-12T18:25:28.491Z,16.75
2018-01-12T18:27:56.845Z,15.82
2018-01-12T18:30:24.454Z,16.62
2018-01-12T18:32:52.046Z,16.83
2018-01-12T18:35:19.676Z,15.98
2018-01-12T18:37:47.311Z,17.75
2018-01-12T18:40:15.682Z,20.20
2018-01-12T18:42:43.296Z,17.17
2018-01-12T18:45:10.902Z,15.98
2018-01-12T18:47:38.505Z,16.45
2018-01-12T18:50:06.064Z,16.73
2018-01-12T18:52:33.713Z,15.32
2018-01-12T18:55:01.345Z,16.50
2018-01-12T18:57:28.957Z,15.20
2018-01-12T18:59:56.572Z,16.30
2018-01-12T19:02:24.181Z,18.52
2018-01-12T19:04:52.528Z,16.08
2018-01-12T19:07:20.174Z,19.12
2018-01-12T19:09:47.732Z,16.67
2018-01-12T19:12:18.150Z,17.10
2018-01-12T19:14:46.594Z,16.45
2018-01-12T19:17:14.222Z,16.25
2018-01-12T19:19:41.851Z,15.65
2018-01-12T19:22:09.467Z,16.40
2018-01-12T19:24:37.044Z,15.75
2018-01-12T19:27:04.630Z,17.05
2018-01-12T19:29:32.258Z,16.70
2018-01-12T19:31:59.834Z,15.90
2018-01-12T19:34:27.480Z,16.30
2018-01-12T19:36:55.100Z,17.27
2018-01-12T19:39:22.730Z,17.60
2018-01-12T19:41:50.308Z,16.00
2018-01-12T19:44:17.930Z,15.55
2018-01-12T19:46:45.521Z,18.52
2018-01-12T19:49:13.155Z,17.52
2018-01-12T19:51:40.743Z,16.52
2018-01-12T19:54:08.386Z,16.75
2018-01-12T19:56:35.956Z,16.30
2018-01-12T19:59:03.529Z,16.90
2018-01-12T20:01:32.171Z,18.27
2018-01-12T20:03:59.804Z,17.15
2018-01-12T20:06:28.175Z,17.33
2018-01-12T20:08:55.738Z,16.65
2018-01-12T20:11:24.161Z,17.27
2018-01-12T20:13:51.784Z,17.87
2018-01-12T20:16:20.144Z,18.35
2018-01-12T20:18:47.722Z,17.80
2018-01-12T20:21:16.146Z,18.85
2018-01-12T20:23:43.720Z,17.60
2018-01-12T20:26:11.354Z,16.33
2018-01-12T20:28:38.929Z,18.60
2018-01-12T20:31:06.548Z,18.65
2018-01-12T20:33:34.964Z,18.42
2018-01-12T20:36:02.600Z,18.42
2018-01-12T20:38:30.436Z,18.37
2018-01-12T20:40:58.041Z,19.37
2018-01-12T20:43:25.686Z,20.27
2018-01-12T20:45:54.034Z,18.77
2018-01-12T20:48:21.622Z,18.05
2018-01-12T20:50:49.261Z,17.65
2018-01-12T20:53:16.841Z,20.73
2018-01-12T20:55:45.204Z,19.77
2018-01-12T20:58:12.817Z,19.85
2018-01-12T21:00:40.425Z,18.48
2018-01-12T21:03:10.014Z,19.05
2018-01-12T21:05:37.632Z,19.83
2018-01-12T21:08:05.268Z,19.67
2018-01-12T21:10:32.832Z,20.83
2018-01-12T21:13:00.476Z,19.30
2018-01-12T21:15:28.069Z,19.62
2018-01-12T21:17:56.543Z,19.60
2018-01-12T21:20:24.890Z,20.17
2018-01-12T21:22:52.476Z,21.20
2018-01-12T21:25:20.105Z,19.33
2018-01-12T21:27:47.673Z,21.87
2018-01-12T21:30:15.248Z,22.70
2018-01-12T21:32:43.723Z,20.85
2018-01-12T21:35:11.300Z,22.37
2018-01-12T21:37:39.637Z,23.25
2018-01-12T21:40:07.230Z,23.27
2018-01-12T21:42:34.859Z,23.17
2018-01-12T21:45:02.456Z,22.13
2018-01-12T21:47:30.074Z,22.60
2018-01-12T21:49:57.682Z,21.90
2018-01-12T21:52:26.087Z,20.55
2018-01-12T21:54:53.833Z,19.42
2018-01-12T21:57:21.416Z,21.05
2018-01-12T21:59:49.045Z,19.95
2018-01-12T22:02:16.659Z,20.92
2018-01-12T22:04:44.317Z,18.00
2018-01-12T22:07:11.901Z,20.40
2018-01-12T22:09:39.504Z,19.35
2018-01-12T22:12:07.985Z,21.27
2018-01-12T22:14:36.373Z,20.70
2018-01-12T22:17:04.099Z,19.50
2018-01-12T22:19:31.755Z,19.25
2018-01-12T22:21:59.491Z,20.45
2018-01-12T22:24:27.113Z,20.42
2018-01-12T22:26:55.525Z,19.60
2018-01-12T22:29:23.139Z,22.67
2018-01-12T22:31:50.727Z,20.55
2018-01-12T22:34:18.361Z,18.80
2018-01-12T22:36:46.750Z,18.83
2018-01-12T22:39:15.153Z,20.65
2018-01-12T22:41:42.801Z,20.33
2018-01-12T22:44:11.190Z,21.58
2018-01-12T22:46:38.827Z,21.73
2018-01-12T22:49:06.419Z,20.95
2018-01-12T22:51:34.804Z,21.50
2018-01-12T22:54:02.386Z,22.73
2018-01-12T22:56:30.026Z,24.50
2018-01-12T22:58:57.598Z,24.30
2018-01-12T23:01:25.219Z,21.90
2018-01-12T23:03:52.838Z,22.50
2018-01-12T23:06:20.431Z,23.05
2018-01-12T23:08:48.067Z,22.13
2018-01-12T23:11:15.649Z,22.05
2018-01-12T23:13:43.261Z,22.27
2018-01-12T23:16:10.851Z,23.73
2018-01-12T23:18:38.440Z,22.23
2018-01-12T23:21:06.050Z,21.23
2018-01-12T23:23:33.679Z,23.95
2018-01-12T23:26:02.084Z,24.50
2018-01-12T23:28:29.672Z,22.98
2018-01-12T23:30:57.306Z,21.80
2018-01-12T23:33:24.885Z,22.95
2018-01-12T23:35:52.462Z,22.70
2018-01-12T23:38:20.110Z,22.50
2018-01-12T23:40:47.693Z,21.50
2018-01-12T23:43:15.262Z,21.23
2018-01-12T23:45:42.909Z,19.67
2018-01-12T23:48:10.480Z,22.00
2018-01-12T23:50:38.068Z,21.10
2018-01-12T23:53:06.475Z,21.40
2018-01-12T23:55:34.079Z,20.65
2018-01-12T23:58:01.673Z,22.02
